sensor_id;sensor_type;location;lat;lon;timestamp;pressure;altitude;pressure_sealevel;temperature;humidity
55687;BME280;41911;52.362;4.978;2023-04-07T00:00:20;101488.57;;;8.11;56.35
55687;BME280;41911;52.362;4.978;2023-04-07T00:00:51;101485.34;;;8.05;55.91
55687;BME280;41911;52.362;4.978;2023-04-07T00:01:22;101486.42;;;7.90;56.02
55687;BME280;41911;52.362;4.978;2023-04-07T00:01:53;101486.97;;;7.89;56.00
55687;BME280;41911;52.362;4.978;2023-04-07T00:02:24;101489.87;;;8.17;55.98
55687;BME280;41911;52.362;4.978;2023-04-07T00:02:55;101485.04;;;8.33;55.73
55687;BME280;41911;52.362;4.978;2023-04-07T00:03:26;101485.98;;;8.29;56.24
55687;BME280;41911;52.362;4.978;2023-04-07T00:03:57;101487.13;;;8.01;56.06
55687;BME280;41911;52.362;4.978;2023-04-07T00:04:28;101486.64;;;7.96;55.62
55687;BME280;41911;52.362;4.978;2023-04-07T00:04:59;101486.33;;;7.99;55.78
55687;BME280;41911;52.362;4.978;2023-04-07T00:05:30;101486.13;;;7.92;56.14
55687;BME280;41911;52.362;4.978;2023-04-07T00:06:01;101485.75;;;7.94;55.85
55687;BME280;41911;52.362;4.978;2023-04-07T00:06:32;101488.87;;;8.01;56.13
55687;BME280;41911;52.362;4.978;2023-04-07T00:07:03;101486.99;;;8.17;55.94
55687;BME280;41911;52.362;4.978;2023-04-07T00:07:34;101487.36;;;8.38;55.58
55687;BME280;41911;52.362;4.978;2023-04-07T00:08:05;101487.30;;;8.01;55.76
55687;BME280;41911;52.362;4.978;2023-04-07T00:08:36;101486.81;;;8.07;55.67
55687;BME280;41911;52.362;4.978;2023-04-07T00:09:07;101487.09;;;8.27;55.43
55687;BME280;41911;52.362;4.978;2023-04-07T00:09:38;101487.04;;;8.93;54.96
55687;BME280;41911;52.362;4.978;2023-04-07T00:10:09;101487.02;;;8.77;54.66
55687;BME280;41911;52.362;4.978;2023-04-07T00:10:42;101485.77;;;8.64;54.59
55687;BME280;41911;52.362;4.978;2023-04-07T00:11:13;101485.60;;;8.25;54.82
55687;BME280;41911;52.362;4.978;2023-04-07T00:11:44;101483.72;;;8.60;54.77
55687;BME280;41911;52.362;4.978;2023-04-07T00:12:15;101486.54;;;8.63;54.76
55687;BME280;41911;52.362;4.978;2023-04-07T00:12:46;101484.93;;;8.49;54.54
55687;BME280;41911;52.362;4.978;2023-04-07T00:13:17;101484.22;;;8.69;54.27
55687;BME280;41911;52.362;4.978;2023-04-07T00:13:48;101485.86;;;8.73;54.41
55687;BME280;41911;52.362;4.978;2023-04-07T00:14:20;101486.51;;;8.85;54.28
55687;BME280;41911;52.362;4.978;2023-04-07T00:14:51;101487.47;;;8.93;53.99
55687;BME280;41911;52.362;4.978;2023-04-07T00:15:22;101490.44;;;8.57;54.06
55687;BME280;41911;52.362;4.978;2023-04-07T00:15:53;101488.09;;;8.90;53.96
55687;BME280;41911;52.362;4.978;2023-04-07T00:16:24;101486.76;;;8.51;54.09
55687;BME280;41911;52.362;4.978;2023-04-07T00:16:55;101486.19;;;8.61;54.22
55687;BME280;41911;52.362;4.978;2023-04-07T00:17:26;101487.45;;;8.20;54.53
55687;BME280;41911;52.362;4.978;2023-04-07T00:17:58;101488.35;;;8.20;55.01
55687;BME280;41911;52.362;4.978;2023-04-07T00:18:29;101486.74;;;8.51;54.75
55687;BME280;41911;52.362;4.978;2023-04-07T00:19:00;101485.56;;;8.19;54.99
55687;BME280;41911;52.362;4.978;2023-04-07T00:19:32;101488.08;;;8.34;54.95
55687;BME280;41911;52.362;4.978;2023-04-07T00:20:03;101487.67;;;7.85;55.05
55687;BME280;41911;52.362;4.978;2023-04-07T00:20:34;101489.20;;;8.02;55.41
55687;BME280;41911;52.362;4.978;2023-04-07T00:21:05;101489.39;;;8.11;55.39
55687;BME280;41911;52.362;4.978;2023-04-07T00:21:36;101488.15;;;7.97;55.44
55687;BME280;41911;52.362;4.978;2023-04-07T00:22:07;101492.81;;;7.93;55.58
55687;BME280;41911;52.362;4.978;2023-04-07T00:22:38;101491.59;;;8.14;55.20
55687;BME280;41911;52.362;4.978;2023-04-07T00:23:09;101493.92;;;7.48;55.96
55687;BME280;41911;52.362;4.978;2023-04-07T00:23:45;101494.46;;;7.59;56.43
55687;BME280;41911;52.362;4.978;2023-04-07T00:24:16;101502.70;;;6.87;57.61
55687;BME280;41911;52.362;4.978;2023-04-07T00:24:47;101500.62;;;6.90;57.50
55687;BME280;41911;52.362;4.978;2023-04-07T00:25:18;101501.12;;;6.87;57.63
55687;BME280;41911;52.362;4.978;2023-04-07T00:25:49;101500.43;;;6.73;58.15
55687;BME280;41911;52.362;4.978;2023-04-07T00:26:20;101504.84;;;6.56;58.78
55687;BME280;41911;52.362;4.978;2023-04-07T00:26:51;101500.57;;;6.36;59.23
55687;BME280;41911;52.362;4.978;2023-04-07T00:27:22;101504.38;;;6.44;59.25
55687;BME280;41911;52.362;4.978;2023-04-07T00:27:53;101502.57;;;6.91;59.13
55687;BME280;41911;52.362;4.978;2023-04-07T00:28:24;101500.55;;;6.61;59.09
55687;BME280;41911;52.362;4.978;2023-04-07T00:28:55;101499.04;;;6.98;58.42
55687;BME280;41911;52.362;4.978;2023-04-07T00:29:26;101506.92;;;6.92;58.58
55687;BME280;41911;52.362;4.978;2023-04-07T00:29:57;101505.45;;;6.76;59.28
55687;BME280;41911;52.362;4.978;2023-04-07T00:30:28;101505.06;;;6.21;60.01
55687;BME280;41911;52.362;4.978;2023-04-07T00:30:59;101503.76;;;6.45;60.43
55687;BME280;41911;52.362;4.978;2023-04-07T00:31:29;101504.62;;;6.19;60.66
55687;BME280;41911;52.362;4.978;2023-04-07T00:32:00;101502.98;;;7.06;59.80
55687;BME280;41911;52.362;4.978;2023-04-07T00:32:31;101502.66;;;6.99;59.21
55687;BME280;41911;52.362;4.978;2023-04-07T00:33:03;101505.58;;;7.03;59.56
55687;BME280;41911;52.362;4.978;2023-04-07T00:33:34;101504.23;;;7.25;59.47
55687;BME280;41911;52.362;4.978;2023-04-07T00:34:05;101503.96;;;7.03;59.15
55687;BME280;41911;52.362;4.978;2023-04-07T00:34:36;101507.70;;;7.04;59.57
55687;BME280;41911;52.362;4.978;2023-04-07T00:35:07;101505.54;;;7.15;59.42
55687;BME280;41911;52.362;4.978;2023-04-07T00:35:38;101502.37;;;7.16;59.56
55687;BME280;41911;52.362;4.978;2023-04-07T00:36:09;101505.37;;;6.68;59.59
55687;BME280;41911;52.362;4.978;2023-04-07T00:36:40;101505.50;;;7.18;58.96
55687;BME280;41911;52.362;4.978;2023-04-07T00:37:16;101503.93;;;6.96;58.63
55687;BME280;41911;52.362;4.978;2023-04-07T00:37:47;101501.58;;;7.08;59.02
55687;BME280;41911;52.362;4.978;2023-04-07T00:38:18;101503.91;;;6.58;59.43
55687;BME280;41911;52.362;4.978;2023-04-07T00:38:49;101505.39;;;6.23;59.55
55687;BME280;41911;52.362;4.978;2023-04-07T00:39:20;101499.96;;;6.82;58.92
55687;BME280;41911;52.362;4.978;2023-04-07T00:39:52;101498.45;;;6.84;58.76
55687;BME280;41911;52.362;4.978;2023-04-07T00:40:23;101501.46;;;6.78;58.75
55687;BME280;41911;52.362;4.978;2023-04-07T00:40:56;101499.03;;;6.82;58.68
55687;BME280;41911;52.362;4.978;2023-04-07T00:41:27;101499.66;;;7.05;59.33
55687;BME280;41911;52.362;4.978;2023-04-07T00:41:58;101497.21;;;6.33;60.00
55687;BME280;41911;52.362;4.978;2023-04-07T00:42:29;101497.73;;;6.21;59.88
55687;BME280;41911;52.362;4.978;2023-04-07T00:43:00;101497.90;;;6.69;60.19
55687;BME280;41911;52.362;4.978;2023-04-07T00:43:31;101501.17;;;6.52;60.37
55687;BME280;41911;52.362;4.978;2023-04-07T00:44:02;101502.66;;;6.10;61.17
55687;BME280;41911;52.362;4.978;2023-04-07T00:44:33;101499.38;;;6.27;60.40
55687;BME280;41911;52.362;4.978;2023-04-07T00:45:05;101501.82;;;6.59;60.56
55687;BME280;41911;52.362;4.978;2023-04-07T00:45:36;101502.02;;;6.39;60.79
55687;BME280;41911;52.362;4.978;2023-04-07T00:46:07;101501.93;;;6.54;60.47
55687;BME280;41911;52.362;4.978;2023-04-07T00:46:39;101498.53;;;6.82;60.20
55687;BME280;41911;52.362;4.978;2023-04-07T00:47:11;101498.90;;;6.65;60.41
55687;BME280;41911;52.362;4.978;2023-04-07T00:47:43;101499.89;;;6.47;60.74
55687;BME280;41911;52.362;4.978;2023-04-07T00:48:14;101499.28;;;6.82;60.27
55687;BME280;41911;52.362;4.978;2023-04-07T00:48:45;101500.20;;;6.34;60.45
55687;BME280;41911;52.362;4.978;2023-04-07T00:49:16;101500.22;;;6.69;60.46
55687;BME280;41911;52.362;4.978;2023-04-07T00:49:47;101499.15;;;6.97;60.00
55687;BME280;41911;52.362;4.978;2023-04-07T00:50:18;101502.59;;;6.65;60.40
55687;BME280;41911;52.362;4.978;2023-04-07T00:50:49;101500.77;;;6.46;60.41
55687;BME280;41911;52.362;4.978;2023-04-07T00:51:20;101499.63;;;7.27;59.51
55687;BME280;41911;52.362;4.978;2023-04-07T00:51:52;101501.32;;;7.10;59.14
55687;BME280;41911;52.362;4.978;2023-04-07T00:52:23;101502.24;;;7.06;59.04
55687;BME280;41911;52.362;4.978;2023-04-07T00:52:54;101504.17;;;7.14;59.20
55687;BME280;41911;52.362;4.978;2023-04-07T00:53:25;101503.55;;;7.33;58.66
55687;BME280;41911;52.362;4.978;2023-04-07T00:53:56;101500.30;;;7.72;58.42
55687;BME280;41911;52.362;4.978;2023-04-07T00:54:29;101502.54;;;7.47;57.87
55687;BME280;41911;52.362;4.978;2023-04-07T00:55:00;101503.84;;;7.40;58.47
55687;BME280;41911;52.362;4.978;2023-04-07T00:55:31;101501.15;;;7.11;58.28
55687;BME280;41911;52.362;4.978;2023-04-07T00:56:02;101504.17;;;7.10;58.72
55687;BME280;41911;52.362;4.978;2023-04-07T00:56:33;101500.48;;;6.83;58.82
55687;BME280;41911;52.362;4.978;2023-04-07T00:57:04;101503.36;;;7.01;58.49
55687;BME280;41911;52.362;4.978;2023-04-07T00:57:36;101499.69;;;7.97;57.79
55687;BME280;41911;52.362;4.978;2023-04-07T00:58:08;101498.20;;;7.51;57.60
55687;BME280;41911;52.362;4.978;2023-04-07T00:58:39;101495.63;;;7.70;57.33
55687;BME280;41911;52.362;4.978;2023-04-07T00:59:10;101501.46;;;7.91;56.94
55687;BME280;41911;52.362;4.978;2023-04-07T00:59:41;101500.87;;;7.65;56.85
55687;BME280;41911;52.362;4.978;2023-04-07T01:00:12;101502.18;;;7.50;57.27
55687;BME280;41911;52.362;4.978;2023-04-07T01:00:48;101500.99;;;7.21;57.48
55687;BME280;41911;52.362;4.978;2023-04-07T01:01:23;101497.02;;;7.48;57.34
55687;BME280;41911;52.362;4.978;2023-04-07T01:02:01;101499.04;;;7.67;57.17
55687;BME280;41911;52.362;4.978;2023-04-07T01:02:36;101501.14;;;7.00;58.08
55687;BME280;41911;52.362;4.978;2023-04-07T01:03:11;101502.35;;;7.42;57.44
55687;BME280;41911;52.362;4.978;2023-04-07T01:03:47;101500.89;;;7.53;57.27
55687;BME280;41911;52.362;4.978;2023-04-07T01:04:26;101498.16;;;7.73;56.93
55687;BME280;41911;52.362;4.978;2023-04-07T01:05:08;101503.88;;;7.53;57.19
55687;BME280;41911;52.362;4.978;2023-04-07T01:05:44;101512.55;;;6.46;58.96
55687;BME280;41911;52.362;4.978;2023-04-07T01:06:17;101507.65;;;6.82;58.75
55687;BME280;41911;52.362;4.978;2023-04-07T01:06:52;101504.26;;;7.54;57.87
55687;BME280;41911;52.362;4.978;2023-04-07T01:07:30;101506.41;;;7.19;57.78
55687;BME280;41911;52.362;4.978;2023-04-07T01:08:12;101514.15;;;7.34;58.63
55687;BME280;41911;52.362;4.978;2023-04-07T01:08:50;101514.27;;;6.50;59.00
55687;BME280;41911;52.362;4.978;2023-04-07T01:09:26;101512.04;;;6.89;58.99
55687;BME280;41911;52.362;4.978;2023-04-07T01:10:04;101512.21;;;7.24;58.37
55687;BME280;41911;52.362;4.978;2023-04-07T01:10:41;101511.69;;;7.23;58.01
55687;BME280;41911;52.362;4.978;2023-04-07T01:11:22;101510.65;;;7.35;57.80
55687;BME280;41911;52.362;4.978;2023-04-07T01:12:01;101513.43;;;7.18;57.92
55687;BME280;41911;52.362;4.978;2023-04-07T01:12:42;101510.62;;;7.21;57.96
55687;BME280;41911;52.362;4.978;2023-04-07T01:13:22;101513.04;;;7.43;57.57
55687;BME280;41911;52.362;4.978;2023-04-07T01:13:53;101514.44;;;7.11;57.98
55687;BME280;41911;52.362;4.978;2023-04-07T01:14:27;101512.15;;;7.09;57.63
55687;BME280;41911;52.362;4.978;2023-04-07T01:15:08;101512.89;;;7.48;57.32
55687;BME280;41911;52.362;4.978;2023-04-07T01:15:39;101514.90;;;7.50;57.34
55687;BME280;41911;52.362;4.978;2023-04-07T01:16:22;101517.92;;;7.18;57.81
55687;BME280;41911;52.362;4.978;2023-04-07T01:16:57;101517.30;;;7.10;58.09
55687;BME280;41911;52.362;4.978;2023-04-07T01:17:33;101516.68;;;7.77;57.98
55687;BME280;41911;52.362;4.978;2023-04-07T01:18:09;101521.15;;;6.93;58.20
55687;BME280;41911;52.362;4.978;2023-04-07T01:18:44;101513.68;;;7.29;57.59
55687;BME280;41911;52.362;4.978;2023-04-07T01:19:32;101519.03;;;7.03;58.12
55687;BME280;41911;52.362;4.978;2023-04-07T01:20:05;101512.94;;;7.32;57.66
55687;BME280;41911;52.362;4.978;2023-04-07T01:20:37;101521.75;;;6.59;58.88
55687;BME280;41911;52.362;4.978;2023-04-07T01:21:14;101517.35;;;7.01;58.26
55687;BME280;41911;52.362;4.978;2023-04-07T01:21:46;101518.90;;;6.73;58.55
55687;BME280;41911;52.362;4.978;2023-04-07T01:22:27;101519.87;;;6.84;58.75
55687;BME280;41911;52.362;4.978;2023-04-07T01:23:03;101525.21;;;7.24;57.96
55687;BME280;41911;52.362;4.978;2023-04-07T01:23:51;101517.34;;;7.15;58.13
55687;BME280;41911;52.362;4.978;2023-04-07T01:24:41;101518.86;;;7.02;58.29
55687;BME280;41911;52.362;4.978;2023-04-07T01:25:26;101518.95;;;6.78;58.62
55687;BME280;41911;52.362;4.978;2023-04-07T01:26:11;101520.51;;;6.44;58.77
55687;BME280;41911;52.362;4.978;2023-04-07T01:26:48;101515.08;;;6.43;59.71
55687;BME280;41911;52.362;4.978;2023-04-07T01:27:35;101515.67;;;6.76;58.75
55687;BME280;41911;52.362;4.978;2023-04-07T01:28:16;101519.01;;;6.99;59.02
55687;BME280;41911;52.362;4.978;2023-04-07T01:29:17;101517.43;;;6.21;59.53
55687;BME280;41911;52.362;4.978;2023-04-07T01:29:49;101516.10;;;7.15;59.03
55687;BME280;41911;52.362;4.978;2023-04-07T01:30:22;101513.64;;;6.42;59.34
55687;BME280;41911;52.362;4.978;2023-04-07T01:30:57;101514.09;;;6.57;59.07
55687;BME280;41911;52.362;4.978;2023-04-07T01:31:29;101509.80;;;7.04;58.30
55687;BME280;41911;52.362;4.978;2023-04-07T01:32:03;101513.42;;;7.07;57.95
55687;BME280;41911;52.362;4.978;2023-04-07T01:32:36;101515.06;;;7.06;57.92
55687;BME280;41911;52.362;4.978;2023-04-07T01:33:09;101517.42;;;6.82;58.11
55687;BME280;41911;52.362;4.978;2023-04-07T01:33:43;101515.28;;;6.45;58.86
55687;BME280;41911;52.362;4.978;2023-04-07T01:34:16;101508.90;;;7.14;58.28
55687;BME280;41911;52.362;4.978;2023-04-07T01:34:48;101508.68;;;7.15;58.18
55687;BME280;41911;52.362;4.978;2023-04-07T01:35:19;101510.46;;;7.12;57.80
55687;BME280;41911;52.362;4.978;2023-04-07T01:35:50;101507.84;;;7.13;57.72
55687;BME280;41911;52.362;4.978;2023-04-07T01:36:23;101511.16;;;7.13;57.80
55687;BME280;41911;52.362;4.978;2023-04-07T01:36:58;101511.86;;;7.58;58.01
55687;BME280;41911;52.362;4.978;2023-04-07T01:37:29;101511.00;;;7.34;57.50
55687;BME280;41911;52.362;4.978;2023-04-07T01:38:02;101513.53;;;7.23;57.68
55687;BME280;41911;52.362;4.978;2023-04-07T01:38:34;101511.66;;;6.71;58.30
55687;BME280;41911;52.362;4.978;2023-04-07T01:39:06;101509.97;;;6.66;58.78
55687;BME280;41911;52.362;4.978;2023-04-07T01:39:39;101508.44;;;7.09;58.75
55687;BME280;41911;52.362;4.978;2023-04-07T01:40:10;101510.35;;;7.14;58.86
55687;BME280;41911;52.362;4.978;2023-04-07T01:40:47;101510.50;;;6.91;58.63
55687;BME280;41911;52.362;4.978;2023-04-07T01:41:19;101508.98;;;6.91;58.66
55687;BME280;41911;52.362;4.978;2023-04-07T01:41:52;101508.71;;;7.29;58.08
55687;BME280;41911;52.362;4.978;2023-04-07T01:42:25;101510.72;;;7.20;57.68
55687;BME280;41911;52.362;4.978;2023-04-07T01:42:57;101509.07;;;7.17;57.45
55687;BME280;41911;52.362;4.978;2023-04-07T01:43:30;101512.54;;;7.26;57.64
55687;BME280;41911;52.362;4.978;2023-04-07T01:44:02;101511.58;;;7.66;57.69
55687;BME280;41911;52.362;4.978;2023-04-07T01:44:34;101511.12;;;7.43;57.38
55687;BME280;41911;52.362;4.978;2023-04-07T01:45:07;101511.88;;;7.33;57.32
55687;BME280;41911;52.362;4.978;2023-04-07T01:45:40;101515.29;;;7.36;57.09
55687;BME280;41911;52.362;4.978;2023-04-07T01:46:12;101511.69;;;7.41;57.08
55687;BME280;41911;52.362;4.978;2023-04-07T01:46:43;101513.99;;;7.48;56.78
55687;BME280;41911;52.362;4.978;2023-04-07T01:47:15;101511.43;;;7.55;56.65
55687;BME280;41911;52.362;4.978;2023-04-07T01:47:46;101512.11;;;7.86;56.26
55687;BME280;41911;52.362;4.978;2023-04-07T01:48:18;101510.05;;;7.87;56.19
55687;BME280;41911;52.362;4.978;2023-04-07T01:48:50;101510.73;;;8.00;56.11
55687;BME280;41911;52.362;4.978;2023-04-07T01:49:22;101512.11;;;6.99;57.11
55687;BME280;41911;52.362;4.978;2023-04-07T01:49:56;101513.32;;;7.28;56.57
55687;BME280;41911;52.362;4.978;2023-04-07T01:50:29;101513.98;;;7.63;56.51
55687;BME280;41911;52.362;4.978;2023-04-07T01:51:00;101516.86;;;7.50;56.66
55687;BME280;41911;52.362;4.978;2023-04-07T01:51:32;101517.24;;;6.96;57.54
55687;BME280;41911;52.362;4.978;2023-04-07T01:52:04;101518.89;;;7.70;57.14
55687;BME280;41911;52.362;4.978;2023-04-07T01:52:36;101514.18;;;7.42;56.81
55687;BME280;41911;52.362;4.978;2023-04-07T01:53:07;101519.27;;;7.40;57.29
55687;BME280;41911;52.362;4.978;2023-04-07T01:53:39;101520.71;;;6.82;58.00
55687;BME280;41911;52.362;4.978;2023-04-07T01:54:10;101516.21;;;6.72;57.97
55687;BME280;41911;52.362;4.978;2023-04-07T01:54:41;101517.39;;;6.96;57.66
55687;BME280;41911;52.362;4.978;2023-04-07T01:55:13;101517.22;;;7.07;58.02
55687;BME280;41911;52.362;4.978;2023-04-07T01:55:44;101519.08;;;6.66;58.25
55687;BME280;41911;52.362;4.978;2023-04-07T01:56:15;101516.78;;;6.80;58.45
55687;BME280;41911;52.362;4.978;2023-04-07T01:56:46;101519.55;;;6.86;58.70
55687;BME280;41911;52.362;4.978;2023-04-07T01:57:17;101519.61;;;7.24;57.99
55687;BME280;41911;52.362;4.978;2023-04-07T01:57:48;101518.23;;;6.81;58.36
55687;BME280;41911;52.362;4.978;2023-04-07T01:58:18;101514.35;;;7.07;58.48
55687;BME280;41911;52.362;4.978;2023-04-07T01:58:49;101518.71;;;6.90;58.36
55687;BME280;41911;52.362;4.978;2023-04-07T01:59:20;101513.77;;;7.42;58.00
55687;BME280;41911;52.362;4.978;2023-04-07T01:59:52;101513.27;;;7.89;57.41
55687;BME280;41911;52.362;4.978;2023-04-07T02:00:23;101515.15;;;7.39;57.06
55687;BME280;41911;52.362;4.978;2023-04-07T02:00:54;101516.16;;;7.76;57.43
55687;BME280;41911;52.362;4.978;2023-04-07T02:01:26;101519.38;;;6.90;57.70
55687;BME280;41911;52.362;4.978;2023-04-07T02:01:57;101518.37;;;6.56;58.39
55687;BME280;41911;52.362;4.978;2023-04-07T02:02:28;101522.71;;;6.71;58.57
55687;BME280;41911;52.362;4.978;2023-04-07T02:03:06;101518.77;;;7.26;58.10
55687;BME280;41911;52.362;4.978;2023-04-07T02:03:43;101515.48;;;7.15;57.81
55687;BME280;41911;52.362;4.978;2023-04-07T02:04:24;101513.62;;;7.48;57.12
55687;BME280;41911;52.362;4.978;2023-04-07T02:05:01;101511.75;;;7.39;57.03
55687;BME280;41911;52.362;4.978;2023-04-07T02:05:34;101513.68;;;7.14;57.34
55687;BME280;41911;52.362;4.978;2023-04-07T02:06:10;101514.03;;;7.26;56.90
55687;BME280;41911;52.362;4.978;2023-04-07T02:06:46;101514.66;;;7.25;56.97
55687;BME280;41911;52.362;4.978;2023-04-07T02:07:28;101513.22;;;7.64;56.55
55687;BME280;41911;52.362;4.978;2023-04-07T02:08:03;101510.71;;;8.08;56.66
55687;BME280;41911;52.362;4.978;2023-04-07T02:08:35;101513.95;;;7.59;57.39
55687;BME280;41911;52.362;4.978;2023-04-07T02:09:10;101514.53;;;7.07;57.27
55687;BME280;41911;52.362;4.978;2023-04-07T02:09:43;101512.53;;;7.04;57.53
55687;BME280;41911;52.362;4.978;2023-04-07T02:10:21;101508.97;;;7.55;56.62
55687;BME280;41911;52.362;4.978;2023-04-07T02:10:54;101509.01;;;7.68;56.35
55687;BME280;41911;52.362;4.978;2023-04-07T02:11:26;101513.45;;;7.56;56.69
55687;BME280;41911;52.362;4.978;2023-04-07T02:11:59;101514.19;;;7.24;57.39
55687;BME280;41911;52.362;4.978;2023-04-07T02:12:34;101514.93;;;7.15;57.06
55687;BME280;41911;52.362;4.978;2023-04-07T02:13:10;101515.37;;;7.42;57.19
55687;BME280;41911;52.362;4.978;2023-04-07T02:13:45;101513.39;;;7.26;56.99
55687;BME280;41911;52.362;4.978;2023-04-07T02:14:17;101514.33;;;7.15;56.96
55687;BME280;41911;52.362;4.978;2023-04-07T02:14:49;101515.32;;;7.29;56.99
55687;BME280;41911;52.362;4.978;2023-04-07T02:15:21;101511.16;;;7.55;56.61
55687;BME280;41911;52.362;4.978;2023-04-07T02:15:55;101515.85;;;6.90;57.26
55687;BME280;41911;52.362;4.978;2023-04-07T02:16:27;101518.54;;;6.89;57.41
55687;BME280;41911;52.362;4.978;2023-04-07T02:17:00;101512.44;;;7.07;57.06
55687;BME280;41911;52.362;4.978;2023-04-07T02:17:33;101510.48;;;7.16;57.11
55687;BME280;41911;52.362;4.978;2023-04-07T02:18:06;101512.83;;;7.08;57.15
55687;BME280;41911;52.362;4.978;2023-04-07T02:18:38;101512.69;;;7.10;57.24
55687;BME280;41911;52.362;4.978;2023-04-07T02:19:10;101512.36;;;7.55;57.13
55687;BME280;41911;52.362;4.978;2023-04-07T02:19:41;101513.65;;;6.95;57.54
55687;BME280;41911;52.362;4.978;2023-04-07T02:20:14;101511.86;;;6.91;57.61
55687;BME280;41911;52.362;4.978;2023-04-07T02:20:46;101513.69;;;7.11;57.25
55687;BME280;41911;52.362;4.978;2023-04-07T02:21:18;101514.27;;;7.07;57.20
55687;BME280;41911;52.362;4.978;2023-04-07T02:21:50;101514.64;;;6.98;57.43
55687;BME280;41911;52.362;4.978;2023-04-07T02:22:22;101516.97;;;7.01;57.35
55687;BME280;41911;52.362;4.978;2023-04-07T02:22:53;101514.82;;;7.70;57.16
55687;BME280;41911;52.362;4.978;2023-04-07T02:23:24;101513.43;;;7.13;57.14
55687;BME280;41911;52.362;4.978;2023-04-07T02:23:55;101514.26;;;7.31;56.78
55687;BME280;41911;52.362;4.978;2023-04-07T02:24:26;101518.64;;;7.43;57.14
55687;BME280;41911;52.362;4.978;2023-04-07T02:24:57;101514.17;;;7.35;56.77
55687;BME280;41911;52.362;4.978;2023-04-07T02:25:30;101518.18;;;7.57;57.10
55687;BME280;41911;52.362;4.978;2023-04-07T02:26:02;101517.71;;;7.09;57.18
55687;BME280;41911;52.362;4.978;2023-04-07T02:26:34;101518.14;;;7.14;57.16
55687;BME280;41911;52.362;4.978;2023-04-07T02:27:05;101518.40;;;7.27;56.97
55687;BME280;41911;52.362;4.978;2023-04-07T02:27:35;101521.72;;;6.99;57.55
55687;BME280;41911;52.362;4.978;2023-04-07T02:28:06;101518.16;;;7.09;56.93
55687;BME280;41911;52.362;4.978;2023-04-07T02:28:37;101519.01;;;6.83;57.51
55687;BME280;41911;52.362;4.978;2023-04-07T02:29:08;101515.94;;;6.72;57.58
55687;BME280;41911;52.362;4.978;2023-04-07T02:29:39;101516.56;;;6.67;57.56
55687;BME280;41911;52.362;4.978;2023-04-07T02:30:11;101511.27;;;6.77;57.64
55687;BME280;41911;52.362;4.978;2023-04-07T02:30:42;101521.19;;;7.47;57.54
55687;BME280;41911;52.362;4.978;2023-04-07T02:31:13;101514.58;;;7.46;57.16
55687;BME280;41911;52.362;4.978;2023-04-07T02:31:44;101514.77;;;7.20;57.06
55687;BME280;41911;52.362;4.978;2023-04-07T02:32:15;101513.77;;;7.65;56.38
55687;BME280;41911;52.362;4.978;2023-04-07T02:32:46;101511.36;;;7.77;56.14
55687;BME280;41911;52.362;4.978;2023-04-07T02:33:17;101505.90;;;7.99;56.18
55687;BME280;41911;52.362;4.978;2023-04-07T02:33:48;101509.66;;;7.76;56.09
55687;BME280;41911;52.362;4.978;2023-04-07T02:34:19;101510.64;;;7.93;55.66
55687;BME280;41911;52.362;4.978;2023-04-07T02:34:50;101512.15;;;7.94;55.60
55687;BME280;41911;52.362;4.978;2023-04-07T02:35:21;101506.92;;;7.88;55.76
55687;BME280;41911;52.362;4.978;2023-04-07T02:35:52;101511.40;;;7.90;55.71
55687;BME280;41911;52.362;4.978;2023-04-07T02:36:23;101510.85;;;7.25;56.67
55687;BME280;41911;52.362;4.978;2023-04-07T02:36:54;101514.82;;;7.11;57.64
55687;BME280;41911;52.362;4.978;2023-04-07T02:37:25;101516.78;;;7.08;57.57
55687;BME280;41911;52.362;4.978;2023-04-07T02:37:56;101515.11;;;6.70;57.76
55687;BME280;41911;52.362;4.978;2023-04-07T02:38:27;101517.35;;;6.78;57.82
55687;BME280;41911;52.362;4.978;2023-04-07T02:38:58;101516.64;;;6.81;57.69
55687;BME280;41911;52.362;4.978;2023-04-07T02:39:29;101517.28;;;7.19;57.52
55687;BME280;41911;52.362;4.978;2023-04-07T02:39:59;101515.06;;;7.41;57.49
55687;BME280;41911;52.362;4.978;2023-04-07T02:40:30;101515.53;;;7.22;57.76
55687;BME280;41911;52.362;4.978;2023-04-07T02:41:01;101515.53;;;7.29;57.73
55687;BME280;41911;52.362;4.978;2023-04-07T02:41:32;101522.73;;;7.55;56.99
55687;BME280;41911;52.362;4.978;2023-04-07T02:42:03;101517.20;;;7.70;56.81
55687;BME280;41911;52.362;4.978;2023-04-07T02:42:34;101519.72;;;7.16;57.09
55687;BME280;41911;52.362;4.978;2023-04-07T02:43:05;101519.47;;;7.37;57.55
55687;BME280;41911;52.362;4.978;2023-04-07T02:43:36;101518.77;;;6.88;57.60
55687;BME280;41911;52.362;4.978;2023-04-07T02:44:07;101519.13;;;7.33;57.49
55687;BME280;41911;52.362;4.978;2023-04-07T02:44:38;101520.01;;;6.84;57.76
55687;BME280;41911;52.362;4.978;2023-04-07T02:45:10;101517.56;;;7.12;57.97
55687;BME280;41911;52.362;4.978;2023-04-07T02:45:41;101520.78;;;6.90;57.80
55687;BME280;41911;52.362;4.978;2023-04-07T02:46:12;101520.55;;;7.09;57.99
55687;BME280;41911;52.362;4.978;2023-04-07T02:46:43;101517.95;;;7.84;57.21
55687;BME280;41911;52.362;4.978;2023-04-07T02:47:16;101521.70;;;7.23;57.34
55687;BME280;41911;52.362;4.978;2023-04-07T02:47:46;101519.21;;;7.32;57.29
55687;BME280;41911;52.362;4.978;2023-04-07T02:48:17;101519.26;;;7.86;57.16
55687;BME280;41911;52.362;4.978;2023-04-07T02:48:48;101518.18;;;7.94;56.64
55687;BME280;41911;52.362;4.978;2023-04-07T02:49:22;101521.03;;;7.76;56.40
55687;BME280;41911;52.362;4.978;2023-04-07T02:49:53;101521.25;;;7.40;56.78
55687;BME280;41911;52.362;4.978;2023-04-07T02:50:24;101522.81;;;7.42;56.54
55687;BME280;41911;52.362;4.978;2023-04-07T02:50:55;101520.00;;;7.51;56.57
55687;BME280;41911;52.362;4.978;2023-04-07T02:51:26;101521.67;;;7.44;56.21
55687;BME280;41911;52.362;4.978;2023-04-07T02:51:56;101527.08;;;6.92;57.48
55687;BME280;41911;52.362;4.978;2023-04-07T02:52:28;101525.18;;;6.65;57.87
55687;BME280;41911;52.362;4.978;2023-04-07T02:52:59;101527.91;;;6.56;58.13
55687;BME280;41911;52.362;4.978;2023-04-07T02:53:30;101528.02;;;6.88;57.96